Stations météo

réclame
Mon MeteoGroup
Zeebrugge, Belgique (6418): Température de l'air & dewpoint: 12.11.2018 05:00:00 - 18.11.2018 05:00:00 (CET)Zeebrugge, Belgique (6418): Vitesse du vent & gusts: 12.11.2018 05:00:00 - 18.11.2018 05:00:00 (CET)Zeebrugge, Belgique (6418): Direction du vent: 12.11.2018 05:00:00 - 18.11.2018 05:00:00 (CET)Zeebrugge, Belgique (6418): reduced air pressure: 12.11.2018 05:00:00 - 18.11.2018 05:00:00 (CET)Zeebrugge, Belgique (6418): Ensoleillement: 12.11.2018 05:00:00 - 18.11.2018 05:00:00 (CET)Zeebrugge, Belgique (6418): Quantités de précipitations: 12.11.2018 05:00:00 - 18.11.2018 05:00:00 (CET)
Date & Time tt [°C] td [°C] ff [km/h] ff [knt] fx [km/h] fx [knt] dd ppp [hPa] sd [min] rr [mm]
18.11.2018 05:00:00 - - - - - - - - - -
18.11.2018 04:00:00 4,6 1,2 29 16 38 20 ENE 1029,2 0 0,1
18.11.2018 03:00:00 5,1 1,5 26 14 37 20 E 1029,0 0 0,0
18.11.2018 02:00:00 5,4 1,9 27 14 35 19 ENE 1029,1 0 0,0
18.11.2018 01:00:00 6,0 2,5 25 14 36 20 E 1029,1 0 0,0
18.11.2018 00:00:00 6,2 2,2 29 16 38 21 ENE 1029,1 0 0,0
17.11.2018 23:00:00 6,8 2,2 30 16 39 21 ENE 1029,1 0 0,0
17.11.2018 22:00:00 7,1 2,5 24 13 42 23 E 1028,6 0 0,0
17.11.2018 21:00:00 7,6 3,0 32 18 49 27 E 1029,0 0 0,0
17.11.2018 20:00:00 7,9 3,3 38 21 48 26 E 1028,6 0 0,0
17.11.2018 19:00:00 8,1 3,0 32 18 44 24 ENE 1028,5 0 0,1
17.11.2018 18:00:00 8,6 2,9 32 18 41 22 E 1028,4 0 0,0
17.11.2018 17:00:00 9,1 3,1 29 16 40 21 ENE 1028,1 - -
17.11.2018 16:00:00 9,3 3,5 29 16 38 20 E 1028,2 60 0,0
17.11.2018 15:00:00 9,2 4,0 29 15 39 21 E 1028,2 60 0,0
17.11.2018 14:00:00 8,5 4,8 27 14 35 19 E 1028,6 60 0,0
17.11.2018 13:00:00 7,6 7,0 18 10 31 17 E 1028,8 60 0,0
17.11.2018 12:00:00 6,6 6,3 25 14 35 19 E 1029,1 60 0,0
17.11.2018 11:00:00 5,5 5,4 27 14 35 19 E 1029,1 60 0,0
17.11.2018 10:00:00 4,7 4,7 23 12 31 17 E 1028,9 60 0,0
17.11.2018 09:00:00 3,5 3,5 23 12 29 15 E 1029,0 25 0,0
17.11.2018 08:00:00 3,0 3,0 12 7 18 10 ESE 1028,6 0 0,0
17.11.2018 07:00:00 2,9 2,9 14 8 21 11 ESE 1028,5 0 0,0
17.11.2018 06:00:00 3,3 3,3 15 8 21 12 E 1028,3 0 0,0
17.11.2018 05:00:00 3,5 3,5 14 8 14 8 E 1028,5 - -
17.11.2018 04:00:00 4,0 4,0 11 6 - - E 1028,7 - -
17.11.2018 03:00:00 4,0 4,0 10 5 16 9 ESE 1028,6 0 0,0
17.11.2018 02:00:00 4,3 4,3 10 5 17 9 ESE 1028,5 0 0,0
17.11.2018 01:00:00 4,7 4,7 7 4 16 9 E 1028,2 0 0,0
17.11.2018 00:00:00 5,5 5,5 12 7 18 10 SE 1028,1 0 0,0
16.11.2018 23:00:00 5,7 5,7 12 6 19 10 SE 1028,2 0 0,0
16.11.2018 22:00:00 6,0 6,0 15 8 23 12 ESE 1028,1 0 0,0
16.11.2018 21:00:00 6,2 6,2 13 7 23 12 ESE 1028,0 0 0,0
16.11.2018 20:00:00 6,3 6,3 18 10 26 14 E 1027,9 0 0,0
16.11.2018 19:00:00 6,2 6,2 22 12 26 14 E 1027,5 0 0,0
16.11.2018 18:00:00 6,3 6,3 19 10 29 15 ESE 1027,1 0 0,0
16.11.2018 17:00:00 6,5 6,5 19 11 29 15 ESE 1026,8 0 0,0
16.11.2018 16:00:00 6,4 6,4 18 10 - - E 1027,2 - -
16.11.2018 15:00:00 6,5 6,5 13 7 22 12 E 1027,3 0 0,0
16.11.2018 14:00:00 6,6 6,6 18 10 22 12 ESE 1027,1 0 0,0
16.11.2018 13:00:00 6,7 6,7 14 8 19 11 E 1027,7 0 0,0
16.11.2018 12:00:00 6,5 6,5 9 5 16 9 SE 1027,8 0 0,0
16.11.2018 11:00:00 6,5 6,5 14 8 20 11 ESE 1027,6 0 0,0
16.11.2018 10:00:00 6,4 6,4 13 7 18 10 ESE 1027,2 0 0,0
16.11.2018 09:00:00 6,6 6,6 14 7 20 11 SE 1026,9 0 0,0
16.11.2018 08:00:00 6,7 6,7 10 6 20 11 SSE 1026,6 0 0,0
16.11.2018 07:00:00 6,7 6,6 11 6 17 9 SE 1026,0 0 0,0
16.11.2018 06:00:00 6,7 6,6 14 8 18 10 S 1025,8 - -
16.11.2018 05:00:00 6,8 6,7 16 9 22 12 SSE 1025,3 0 0,0
16.11.2018 04:00:00 6,7 6,6 12 6 23 12 S 1025,4 0 0,0
16.11.2018 03:00:00 7,0 6,8 12 7 24 13 S 1025,3 0 0,0
16.11.2018 02:00:00 7,1 6,8 16 9 24 13 SSE 1024,9 0 0,0
16.11.2018 01:00:00 7,1 6,7 14 8 22 12 SSE 1025,0 0 0,0
16.11.2018 00:00:00 7,9 7,4 19 10 22 12 SE 1024,4 0 0,0
15.11.2018 23:00:00 8,2 7,7 17 9 23 13 SSE 1024,4 0 0,0
15.11.2018 22:00:00 8,4 7,6 19 10 24 13 S 1024,4 0 0,0
15.11.2018 21:00:00 8,7 7,8 17 9 23 13 S 1023,9 0 0,0
15.11.2018 20:00:00 8,6 7,6 18 10 25 13 S 1023,7 0 0,0
15.11.2018 19:00:00 9,0 7,8 18 10 24 13 SSE 1023,4 0 0,0
15.11.2018 18:00:00 9,1 7,6 14 8 27 15 S 1023,3 0 0,0
15.11.2018 17:00:00 9,1 7,1 20 11 26 14 SSE 1022,8 0 0,0
15.11.2018 16:00:00 9,6 6,8 20 11 25 14 SSE 1023,0 44 0,0
15.11.2018 15:00:00 11,4 7,7 21 11 26 14 SSE 1023,1 60 0,0
15.11.2018 14:00:00 12,4 8,9 20 11 24 13 SSE 1023,2 60 0,0
15.11.2018 13:00:00 11,7 8,9 22 12 25 14 SSE 1023,3 60 0,0
15.11.2018 12:00:00 10,7 8,6 15 8 22 12 SSE 1023,5 60 0,0
15.11.2018 11:00:00 9,4 7,7 19 10 25 13 SSE 1023,9 60 0,0
15.11.2018 10:00:00 8,2 6,7 21 12 28 15 SSE 1023,9 60 0,0
15.11.2018 09:00:00 7,8 6,3 21 12 27 15 SSE 1023,7 26 0,0
15.11.2018 08:00:00 7,7 6,2 20 11 26 14 SSE 1023,4 0 0,0
15.11.2018 07:00:00 7,8 6,2 22 12 27 15 SSE 1023,1 0 0,0
15.11.2018 06:00:00 7,9 6,1 18 10 28 15 SSE 1023,3 0 0,0
15.11.2018 05:00:00 8,4 6,4 23 12 27 14 SSE 1023,2 0 0,0
15.11.2018 04:00:00 8,4 6,3 17 9 20 11 SSE 1023,3 0 0,0
15.11.2018 03:00:00 8,6 6,4 18 10 23 13 SSE 1023,6 0 0,0
15.11.2018 02:00:00 8,6 6,2 17 9 23 12 SSE 1023,6 0 0,0
15.11.2018 01:00:00 8,9 6,4 14 8 23 12 SSE 1023,9 0 0,0
15.11.2018 00:00:00 9,0 6,4 17 9 24 13 SSE 1023,9 0 0,0
14.11.2018 23:00:00 9,3 6,5 18 10 23 13 SSE 1024,0 0 0,0
14.11.2018 22:00:00 9,5 6,7 16 9 23 12 SE 1024,0 0 0,0
14.11.2018 21:00:00 10,2 7,3 20 11 29 15 SSE 1023,9 0 0,0
14.11.2018 20:00:00 10,3 7,4 18 10 24 13 SE 1024,2 0 0,0
14.11.2018 19:00:00 10,7 7,6 14 8 21 12 SE 1024,5 0 0,0
14.11.2018 18:00:00 11,4 8,2 17 9 22 12 SE 1024,5 0 0,0
14.11.2018 17:00:00 11,6 8,0 16 9 20 11 SE 1024,5 50 0,0
14.11.2018 16:00:00 12,0 7,9 16 9 21 11 SE 1024,8 19 0,0
14.11.2018 15:00:00 12,3 7,9 16 9 27 14 SSE 1025,3 60 0,0
14.11.2018 14:00:00 12,3 8,2 20 11 31 17 S 1025,6 60 0,0
14.11.2018 13:00:00 11,9 8,7 18 10 31 17 S 1026,0 60 0,0
14.11.2018 12:00:00 11,2 9,0 22 12 26 14 S 1026,6 60 0,0
14.11.2018 11:00:00 10,1 8,4 20 11 26 14 S 1027,2 60 0,0
14.11.2018 10:00:00 8,9 7,5 21 11 29 16 S 1027,2 60 0,0
14.11.2018 09:00:00 8,0 6,5 19 10 24 13 S 1026,8 16 0,0
14.11.2018 08:00:00 7,8 6,2 17 9 27 15 SSE 1026,5 0 0,0
14.11.2018 07:00:00 8,3 6,4 18 10 26 14 S 1026,4 0 0,0
14.11.2018 06:00:00 8,7 6,7 18 10 25 13 S 1026,3 0 0,0
14.11.2018 05:00:00 8,8 6,6 18 10 29 16 SSE 1026,3 - -
14.11.2018 04:00:00 9,1 6,7 22 12 - - S 1026,9 - -
14.11.2018 03:00:00 9,6 7,1 22 12 29 16 S 1027,6 0 0,0
14.11.2018 02:00:00 9,7 7,2 21 12 29 16 S 1027,9 0 0,0
14.11.2018 01:00:00 9,7 7,5 18 10 27 15 S 1028,1 0 0,0
14.11.2018 00:00:00 10,1 8,2 19 11 28 15 S 1027,9 0 0,0
13.11.2018 23:00:00 10,5 8,8 20 11 30 16 S 1027,9 0 0,0
13.11.2018 22:00:00 10,5 8,8 22 12 31 17 S 1027,7 0 0,0
13.11.2018 21:00:00 10,2 8,3 20 11 29 16 S 1027,3 0 0,0
13.11.2018 20:00:00 10,4 8,4 22 12 30 16 S 1027,0 0 0,0
13.11.2018 19:00:00 10,6 8,2 18 10 29 16 S 1026,8 0 0,0
13.11.2018 18:00:00 11,2 8,1 23 12 29 16 SSW 1026,3 0 0,0
13.11.2018 17:00:00 12,4 8,0 21 11 36 19 SSW 1025,6 46 0,0
13.11.2018 16:00:00 13,2 9,3 23 13 35 19 SW 1025,2 54 0,0
13.11.2018 15:00:00 13,0 8,5 26 14 42 23 SSW 1024,5 50 0,0
13.11.2018 14:00:00 13,2 9,7 27 14 46 25 SW 1024,0 59 0,0
13.11.2018 13:00:00 12,5 9,4 32 18 49 26 SSW 1023,3 59 0,0
13.11.2018 12:00:00 11,6 9,2 36 19 50 27 SSW 1023,0 39 0,0
13.11.2018 11:00:00 10,7 8,7 38 20 51 28 SSW 1021,8 57 0,0
13.11.2018 10:00:00 9,5 7,8 32 17 46 25 SSW 1021,2 17 0,0
13.11.2018 09:00:00 9,2 7,6 32 17 46 25 SSW 1020,2 0 0,1
13.11.2018 08:00:00 9,3 7,7 32 17 44 24 SSW 1019,5 0 1,2
13.11.2018 07:00:00 9,6 7,9 29 16 51 28 SSW 1018,7 0 0,2
13.11.2018 06:00:00 9,9 8,1 25 14 36 19 S 1018,0 0 0,0
13.11.2018 05:00:00 10,1 8,2 27 15 37 20 S 1017,5 0 0,0
13.11.2018 04:00:00 10,3 8,3 28 15 39 21 S 1017,3 0 0,0
13.11.2018 03:00:00 10,3 8,3 29 16 43 23 S 1016,8 0 0,0
13.11.2018 02:00:00 10,3 8,2 26 14 39 21 S 1017,0 0 0,0
13.11.2018 01:00:00 10,3 8,2 29 16 39 21 S 1016,2 0 0,0
13.11.2018 00:00:00 10,5 8,3 24 13 39 21 S 1016,3 0 0,0
12.11.2018 23:00:00 10,5 8,3 29 15 35 19 S 1016,1 0 0,0
12.11.2018 22:00:00 10,7 8,4 25 14 - - S 1016,4 0 0,0
12.11.2018 21:00:00 10,9 8,5 26 14 35 19 S 1016,1 0 0,0
12.11.2018 20:00:00 11,0 8,7 25 14 34 18 S 1015,7 0 0,0
12.11.2018 19:00:00 11,1 8,7 25 14 34 18 S 1015,7 0 0,0
12.11.2018 18:00:00 11,3 8,6 21 11 28 15 S 1014,9 0 0,0
12.11.2018 17:00:00 11,6 8,7 18 10 29 16 S 1014,2 - -
12.11.2018 16:00:00 11,9 9,2 20 11 30 16 S 1014,0 22 0,0
12.11.2018 15:00:00 11,8 9,6 20 11 27 15 S 1013,7 0 0,0
12.11.2018 14:00:00 11,4 9,8 23 13 30 16 S 1013,2 1 0,0
12.11.2018 13:00:00 10,9 9,6 18 10 25 13 S 1012,7 0 0,0
12.11.2018 12:00:00 10,6 9,4 19 10 24 13 SSW 1013,1 0 0,1
12.11.2018 11:00:00 10,5 9,4 16 9 19 11 S 1012,5 0 0,4
12.11.2018 10:00:00 10,6 9,5 16 9 21 11 S 1012,0 0 0,2
12.11.2018 09:00:00 10,7 9,7 17 9 21 11 S 1011,8 0 0,3
12.11.2018 08:00:00 10,9 9,8 16 8 20 11 S 1011,5 0 0,2
12.11.2018 07:00:00 10,8 9,7 11 6 26 14 SSE 1011,0 0 0,3
12.11.2018 06:00:00 10,9 9,6 16 9 26 14 S 1010,6 0 0,5
12.11.2018 05:00:00 11,0 9,5 21 11 28 15 S 1010,3 0 0,0

tt = Température de l'air
td = dewpoint
ff = Vitesse du vent
fx = gusts
dd = Direction du vent
ppp = reduced air pressure
sd = Ensoleillement
rr = Quantités de précipitations

stations d'obs. à proximité